Time;durP1;ratioP1;P1;durP2;ratioP2;P2;SDS_P1;SDS_P2;PMS_P1;PMS_P2;Temp;Humidity;BMP_temperature;BMP_pressure;BME280_temperature;BME280_humidity;BME280_pressure;Samples;Min_cycle;Max_cycle;Signal;HPM_P1;HPM_P2
2023/11/25 00:00:26;;;;;;;8.37;4.40;;;;;;;;;;5070976;28;20632;-79
2023/11/25 00:02:54;;;;;;;11.63;4.33;;;;;;;;;;5070798;28;20297;-78
2023/11/25 00:05:22;;;;;;;8.30;4.10;;;;;;;;;;5071296;28;20258;-79
2023/11/25 00:07:49;;;;;;;10.57;4.53;;;;;;;;;;5070401;28;20198;-78
2023/11/25 00:10:16;;;;;;;9.03;4.63;;;;;;;;;;5070908;28;20198;-78
2023/11/25 00:12:44;;;;;;;8.47;4.83;;;;;;;;;;5070890;28;20324;-78
2023/11/25 00:15:14;;;;;;;11.63;4.13;;;;;;;;;;5071191;28;20736;-79
2023/11/25 00:17:42;;;;;;;7.70;4.60;;;;;;;;;;5071220;28;20210;-78
2023/11/25 00:20:10;;;;;;;8.73;4.73;;;;;;;;;;5070762;28;20290;-78
2023/11/25 00:22:37;;;;;;;9.53;5.07;;;;;;;;;;5070539;28;20205;-79
2023/11/25 00:25:04;;;;;;;6.93;4.23;;;;;;;;;;5070774;28;20229;-78
2023/11/25 00:27:32;;;;;;;11.83;5.10;;;;;;;;;;5071076;28;20634;-78
2023/11/25 00:30:00;;;;;;;10.37;5.20;;;;;;;;;;5071854;28;20203;-79
2023/11/25 00:32:28;;;;;;;12.37;5.00;;;;;;;;;;5075168;28;20709;-78
2023/11/25 00:34:55;;;;;;;13.00;4.90;;;;;;;;;;5074581;28;20283;-81
2023/11/25 00:37:23;;;;;;;9.80;4.40;;;;;;;;;;5075052;28;20203;-79
2023/11/25 00:39:50;;;;;;;10.37;4.97;;;;;;;;;;5074225;28;20231;-78
2023/11/25 00:42:21;;;;;;;7.70;4.80;;;;;;;;;;5074503;28;20866;-78
2023/11/25 00:44:48;;;;;;;7.70;4.80;;;;;;;;;;5074308;28;20244;-77
2023/11/25 00:47:15;;;;;;;9.63;4.60;;;;;;;;;;5074098;28;20326;-78
2023/11/25 00:49:48;;;;;;;7.57;4.60;;;;;;;;;;5074389;28;20205;-78
2023/11/25 00:52:15;;;;;;;8.47;4.37;;;;;;;;;;5074580;28;20203;-78
2023/11/25 00:54:42;;;;;;;7.63;4.10;;;;;;;;;;5074336;28;20662;-78
2023/11/25 00:57:09;;;;;;;8.10;4.43;;;;;;;;;;5074069;28;20200;-78
2023/11/25 00:59:37;;;;;;;10.20;4.60;;;;;;;;;;5073972;28;20232;-78
2023/11/25 01:02:05;;;;;;;10.33;4.37;;;;;;;;;;5073817;28;20290;-78
2023/11/25 01:04:32;;;;;;;10.13;5.37;;;;;;;;;;5073978;28;20197;-78
2023/11/25 01:07:01;;;;;;;11.97;7.57;;;;;;;;;;5073920;28;20318;-78
2023/11/25 01:09:30;;;;;;;11.77;7.07;;;;;;;;;;5073528;28;20287;-78
2023/11/25 01:11:57;;;;;;;11.13;6.60;;;;;;;;;;5074057;28;20198;-79
2023/11/25 01:14:25;;;;;;;10.20;6.13;;;;;;;;;;5073986;28;20302;-78
2023/11/25 01:16:53;;;;;;;9.30;5.87;;;;;;;;;;5074113;28;20195;-78
2023/11/25 01:19:20;;;;;;;10.97;5.50;;;;;;;;;;5073241;28;20295;-78
2023/11/25 01:21:48;;;;;;;15.67;8.33;;;;;;;;;;5073672;28;20297;-78
2023/11/25 01:24:17;;;;;;;12.27;7.30;;;;;;;;;;5073950;28;20203;-78
2023/11/25 01:26:44;;;;;;;11.33;7.70;;;;;;;;;;5073815;28;20599;-79
2023/11/25 01:29:11;;;;;;;13.63;7.23;;;;;;;;;;5073303;28;20638;-79
2023/11/25 01:31:38;;;;;;;11.70;5.47;;;;;;;;;;5073518;28;20570;-79
2023/11/25 01:34:06;;;;;;;8.80;4.03;;;;;;;;;;5073452;28;20291;-79
2023/11/25 01:36:33;;;;;;;8.27;4.60;;;;;;;;;;5073189;28;20191;-79
2023/11/25 01:39:00;;;;;;;11.37;4.60;;;;;;;;;;5073952;28;20203;-79
2023/11/25 01:41:29;;;;;;;6.70;4.67;;;;;;;;;;5072231;28;20282;-79
2023/11/25 01:43:56;;;;;;;7.20;4.47;;;;;;;;;;5073641;28;20199;-79
2023/11/25 01:46:32;;;;;;;8.60;4.70;;;;;;;;;;5073381;28;20638;-79
2023/11/25 01:48:59;;;;;;;7.70;4.23;;;;;;;;;;5073020;28;20199;-79
2023/11/25 01:51:27;;;;;;;10.67;6.10;;;;;;;;;;5073258;28;20266;-79
2023/11/25 01:53:54;;;;;;;10.03;5.13;;;;;;;;;;5073045;28;20199;-79
2023/11/25 01:56:22;;;;;;;6.90;4.63;;;;;;;;;;5073127;28;20295;-79
2023/11/25 01:58:50;;;;;;;11.17;5.50;;;;;;;;;;5073199;28;20291;-80
2023/11/25 02:01:18;;;;;;;9.73;4.40;;;;;;;;;;5072843;28;20245;-79
2023/11/25 02:03:45;;;;;;;7.93;4.53;;;;;;;;;;5069801;28;20294;-78
2023/11/25 02:06:13;;;;;;;9.73;4.90;;;;;;;;;;5063685;28;20231;-78
2023/11/25 02:08:40;;;;;;;13.03;6.10;;;;;;;;;;5052486;28;20246;-77
2023/11/25 02:11:07;;;;;;;11.60;6.57;;;;;;;;;;5053000;28;20220;-78
2023/11/25 02:13:34;;;;;;;12.13;5.77;;;;;;;;;;5053016;28;20200;-78
2023/11/25 02:16:03;;;;;;;9.07;5.83;;;;;;;;;;5052790;28;20292;-78
2023/11/25 02:18:30;;;;;;;11.63;6.03;;;;;;;;;;5052775;28;20223;-78
2023/11/25 02:20:58;;;;;;;14.13;6.70;;;;;;;;;;5052696;28;20666;-77
2023/11/25 02:23:27;;;;;;;12.53;6.00;;;;;;;;;;5052795;28;20668;-78
2023/11/25 02:25:54;;;;;;;12.10;6.00;;;;;;;;;;5052347;28;20645;-78
2023/11/25 02:28:21;;;;;;;13.70;6.57;;;;;;;;;;5052712;28;20216;-78
2023/11/25 02:30:49;;;;;;;14.43;7.23;;;;;;;;;;5052604;28;20286;-78
2023/11/25 02:33:16;;;;;;;11.17;5.97;;;;;;;;;;5052074;28;20252;-77
2023/11/25 02:35:44;;;;;;;14.27;5.63;;;;;;;;;;5065845;28;20284;-78
2023/11/25 02:38:11;;;;;;;9.90;5.40;;;;;;;;;;5072369;28;20230;-77
2023/11/25 02:40:41;;;;;;;8.13;5.37;;;;;;;;;;5072059;28;20206;-78
2023/11/25 02:43:08;;;;;;;10.27;5.53;;;;;;;;;;5072589;28;20231;-77
2023/11/25 02:45:35;;;;;;;12.37;5.93;;;;;;;;;;5071397;28;20727;-77
2023/11/25 02:48:04;;;;;;;12.73;4.90;;;;;;;;;;5072151;28;20255;-78
2023/11/25 02:50:32;;;;;;;9.33;4.90;;;;;;;;;;5071908;28;20199;-77
2023/11/25 02:53:00;;;;;;;7.97;5.17;;;;;;;;;;5071822;28;20295;-78
2023/11/25 02:55:27;;;;;;;13.60;5.97;;;;;;;;;;5072326;28;20230;-78
2023/11/25 02:57:56;;;;;;;10.37;5.50;;;;;;;;;;5068438;28;20203;-77
2023/11/25 03:00:29;;;;;;;11.80;5.47;;;;;;;;;;5060821;28;20231;-78
2023/11/25 03:03:07;;;;;;;11.77;5.33;;;;;;;;;;5071936;28;20195;-78
2023/11/25 03:05:34;;;;;;;9.73;5.20;;;;;;;;;;5071914;28;20252;-79
2023/11/25 03:08:02;;;;;;;6.97;4.47;;;;;;;;;;5071728;28;20257;-79
2023/11/25 03:10:30;;;;;;;10.20;5.20;;;;;;;;;;5071703;28;20195;-78
2023/11/25 03:12:59;;;;;;;9.57;5.50;;;;;;;;;;5071477;28;20574;-78
2023/11/25 03:15:26;;;;;;;11.73;5.30;;;;;;;;;;5071456;28;20206;-77
2023/11/25 03:17:53;;;;;;;8.77;5.00;;;;;;;;;;5071709;28;20201;-78
2023/11/25 03:20:21;;;;;;;11.70;5.30;;;;;;;;;;5071703;28;20252;-79
2023/11/25 03:22:48;;;;;;;9.13;5.30;;;;;;;;;;5071191;28;20291;-78
2023/11/25 03:25:15;;;;;;;9.63;5.70;;;;;;;;;;5071525;28;20203;-78
2023/11/25 03:27:43;;;;;;;11.97;5.90;;;;;;;;;;5071278;28;20234;-78
2023/11/25 03:30:12;;;;;;;14.20;5.87;;;;;;;;;;5070696;28;20282;-78
2023/11/25 03:32:40;;;;;;;10.80;5.57;;;;;;;;;;5071666;28;20244;-78
2023/11/25 03:35:08;;;;;;;14.10;6.07;;;;;;;;;;5066995;28;20709;-77
2023/11/25 03:37:35;;;;;;;11.37;5.27;;;;;;;;;;5061137;28;20202;-76
2023/11/25 03:40:07;;;;;;;8.80;5.00;;;;;;;;;;5070905;28;20286;-77
2023/11/25 03:42:34;;;;;;;8.67;5.17;;;;;;;;;;5071475;28;20199;-78
2023/11/25 03:45:02;;;;;;;9.67;5.07;;;;;;;;;;5070790;28;20206;-78
2023/11/25 03:47:30;;;;;;;11.23;6.03;;;;;;;;;;5071302;28;20584;-78
2023/11/25 03:49:57;;;;;;;8.73;5.60;;;;;;;;;;5071189;28;20237;-78
2023/11/25 03:52:24;;;;;;;9.87;5.60;;;;;;;;;;5071027;28;20195;-78
2023/11/25 03:54:53;;;;;;;8.67;5.60;;;;;;;;;;5071208;28;20225;-78
2023/11/25 03:57:21;;;;;;;10.83;5.77;;;;;;;;;;5071365;28;20570;-78
2023/11/25 03:59:48;;;;;;;10.07;5.90;;;;;;;;;;5070411;28;20722;-78
2023/11/25 04:02:16;;;;;;;12.20;5.73;;;;;;;;;;5070884;28;20195;-78
2023/11/25 04:04:45;;;;;;;9.67;5.60;;;;;;;;;;5070772;28;20283;-77
2023/11/25 04:07:13;;;;;;;9.67;6.00;;;;;;;;;;5075217;28;20241;-78
2023/11/25 04:09:40;;;;;;;10.13;5.23;;;;;;;;;;5075218;28;20729;-78
2023/11/25 04:12:10;;;;;;;8.23;5.47;;;;;;;;;;5075207;28;20281;-79
2023/11/25 04:14:37;;;;;;;9.43;5.80;;;;;;;;;;5074752;28;20222;-77
2023/11/25 04:17:04;;;;;;;8.90;5.63;;;;;;;;;;5074856;28;20199;-79
2023/11/25 04:19:31;;;;;;;13.00;6.00;;;;;;;;;;5074890;28;20290;-78
2023/11/25 04:22:00;;;;;;;12.83;5.90;;;;;;;;;;5074866;28;20252;-78
2023/11/25 04:24:28;;;;;;;8.37;5.50;;;;;;;;;;5074653;28;20198;-79
2023/11/25 04:26:55;;;;;;;11.37;6.13;;;;;;;;;;5074509;28;20265;-80
2023/11/25 04:29:22;;;;;;;10.53;6.07;;;;;;;;;;5074614;28;20639;-77
2023/11/25 04:31:50;;;;;;;10.63;6.27;;;;;;;;;;5074859;28;20294;-77
2023/11/25 04:34:17;;;;;;;12.70;6.00;;;;;;;;;;5071891;28;20247;-77
2023/11/25 04:36:45;;;;;;;9.57;5.70;;;;;;;;;;5074759;28;20333;-77
2023/11/25 04:39:13;;;;;;;12.97;6.20;;;;;;;;;;5074580;28;20208;-77
2023/11/25 04:41:41;;;;;;;9.67;5.23;;;;;;;;;;5074011;28;20576;-77
2023/11/25 04:44:09;;;;;;;10.70;6.20;;;;;;;;;;5074507;28;20202;-78
2023/11/25 04:46:36;;;;;;;12.60;5.57;;;;;;;;;;5073927;28;20267;-78
2023/11/25 04:49:04;;;;;;;10.23;5.33;;;;;;;;;;5074744;28;20198;-77
2023/11/25 04:51:33;;;;;;;9.40;5.27;;;;;;;;;;5074442;28;20316;-78
2023/11/25 04:54:01;;;;;;;11.53;6.37;;;;;;;;;;5073947;28;20224;-77
2023/11/25 04:56:30;;;;;;;12.07;6.33;;;;;;;;;;5073613;28;20190;-77
2023/11/25 04:58:57;;;;;;;11.87;6.53;;;;;;;;;;5074205;28;20202;-77
2023/11/25 05:01:25;;;;;;;10.87;6.40;;;;;;;;;;5074269;28;20202;-77
2023/11/25 05:03:52;;;;;;;9.90;6.10;;;;;;;;;;5073899;28;20201;-79
2023/11/25 05:06:20;;;;;;;9.67;5.67;;;;;;;;;;5074123;28;20208;-78
2023/11/25 05:08:47;;;;;;;9.83;5.90;;;;;;;;;;5074586;28;20234;-77
2023/11/25 05:11:14;;;;;;;12.37;5.70;;;;;;;;;;5073576;28;20199;-77
2023/11/25 05:13:43;;;;;;;10.73;6.30;;;;;;;;;;5073832;28;20286;-77
2023/11/25 05:16:10;;;;;;;9.63;6.10;;;;;;;;;;5073181;28;20288;-78
2023/11/25 05:18:37;;;;;;;8.07;6.20;;;;;;;;;;5074016;28;20202;-78
2023/11/25 05:21:07;;;;;;;12.40;6.50;;;;;;;;;;5073368;28;20654;-79
2023/11/25 05:23:34;;;;;;;15.07;6.80;;;;;;;;;;5073266;28;20195;-79
2023/11/25 05:26:01;;;;;;;10.27;7.20;;;;;;;;;;5073071;28;20777;-79
2023/11/25 05:28:29;;;;;;;8.27;6.50;;;;;;;;;;5073275;28;20317;-80
2023/11/25 05:30:58;;;;;;;11.20;6.60;;;;;;;;;;5073487;28;20207;-79
2023/11/25 05:33:25;;;;;;;12.40;6.70;;;;;;;;;;5074254;28;20210;-80
2023/11/25 05:35:52;;;;;;;11.73;7.30;;;;;;;;;;5073750;28;20234;-79
2023/11/25 05:38:19;;;;;;;12.60;7.27;;;;;;;;;;5073449;28;20202;-80
2023/11/25 05:40:47;;;;;;;14.67;7.37;;;;;;;;;;5073195;28;20633;-79
2023/11/25 05:43:16;;;;;;;12.83;7.20;;;;;;;;;;5073344;28;20198;-79
2023/11/25 05:45:43;;;;;;;14.03;7.60;;;;;;;;;;5073411;28;20251;-80
2023/11/25 05:48:12;;;;;;;16.03;8.00;;;;;;;;;;5073542;28;20230;-79
2023/11/25 05:50:39;;;;;;;13.27;7.10;;;;;;;;;;5073529;28;20205;-79
2023/11/25 05:53:07;;;;;;;14.20;6.60;;;;;;;;;;5073107;28;20226;-80
2023/11/25 05:55:34;;;;;;;12.83;7.30;;;;;;;;;;5072458;28;20217;-80
2023/11/25 05:58:01;;;;;;;11.37;6.63;;;;;;;;;;5073544;28;20194;-79
2023/11/25 06:00:29;;;;;;;12.00;7.33;;;;;;;;;;5072381;28;20233;-79
2023/11/25 06:02:56;;;;;;;9.97;6.63;;;;;;;;;;5073057;28;20197;-80
2023/11/25 06:05:25;;;;;;;10.93;6.47;;;;;;;;;;5072735;28;20913;-80
2023/11/25 06:07:52;;;;;;;12.33;6.70;;;;;;;;;;5072996;28;20232;-80
2023/11/25 06:10:20;;;;;;;11.83;6.23;;;;;;;;;;5071765;28;20193;-79
2023/11/25 06:12:47;;;;;;;9.03;6.17;;;;;;;;;;5072622;28;20670;-79
2023/11/25 06:15:15;;;;;;;8.83;5.67;;;;;;;;;;5072490;28;20293;-79
2023/11/25 06:17:44;;;;;;;12.80;5.90;;;;;;;;;;5072772;28;20670;-79
2023/11/25 06:20:12;;;;;;;11.60;6.10;;;;;;;;;;5072622;28;20279;-79
2023/11/25 06:22:41;;;;;;;10.67;5.80;;;;;;;;;;5072480;28;20261;-79
2023/11/25 06:25:08;;;;;;;9.87;5.53;;;;;;;;;;5071987;28;20198;-79
2023/11/25 06:27:35;;;;;;;9.87;5.37;;;;;;;;;;5071201;28;20677;-79
2023/11/25 06:30:03;;;;;;;8.33;5.53;;;;;;;;;;5072341;28;20206;-79
2023/11/25 06:32:32;;;;;;;9.90;5.60;;;;;;;;;;5072093;28;20202;-79
2023/11/25 06:35:00;;;;;;;10.87;5.60;;;;;;;;;;5072241;28;20208;-79
2023/11/25 06:37:27;;;;;;;10.53;5.57;;;;;;;;;;5072498;28;20256;-80
2023/11/25 06:39:56;;;;;;;9.47;5.80;;;;;;;;;;5072000;28;20201;-79
2023/11/25 06:42:24;;;;;;;11.27;6.97;;;;;;;;;;5072077;28;20283;-80
2023/11/25 06:44:52;;;;;;;19.60;11.67;;;;;;;;;;5072184;28;20248;-80
2023/11/25 06:47:19;;;;;;;16.00;10.20;;;;;;;;;;5071666;28;20235;-77
2023/11/25 06:49:50;;;;;;;20.23;10.40;;;;;;;;;;5072247;28;20200;-79
2023/11/25 06:52:18;;;;;;;19.83;10.57;;;;;;;;;;5071404;28;20201;-79
2023/11/25 06:54:45;;;;;;;16.07;9.63;;;;;;;;;;5071899;28;20291;-79
2023/11/25 06:57:15;;;;;;;16.07;10.20;;;;;;;;;;5071908;28;20240;-79
2023/11/25 06:59:45;;;;;;;14.77;9.17;;;;;;;;;;5071707;28;20240;-79
2023/11/25 07:02:12;;;;;;;14.60;9.07;;;;;;;;;;5071575;28;20197;-79
2023/11/25 07:04:39;;;;;;;15.33;9.10;;;;;;;;;;5072261;28;20271;-79
2023/11/25 07:07:07;;;;;;;14.93;9.60;;;;;;;;;;5071603;28;20280;-78
2023/11/25 07:09:34;;;;;;;15.53;9.80;;;;;;;;;;5071798;28;20281;-79
2023/11/25 07:12:02;;;;;;;17.27;10.80;;;;;;;;;;5071607;28;20205;-79
2023/11/25 07:14:31;;;;;;;19.43;11.40;;;;;;;;;;5071780;28;20228;-79
2023/11/25 07:16:58;;;;;;;19.43;11.60;;;;;;;;;;5071537;28;20247;-78
2023/11/25 07:19:25;;;;;;;17.10;11.47;;;;;;;;;;5071351;28;20231;-77
2023/11/25 07:21:54;;;;;;;19.60;11.40;;;;;;;;;;5071516;28;20297;-79
2023/11/25 07:24:27;;;;;;;17.47;10.80;;;;;;;;;;5071222;28;20243;-79
2023/11/25 07:27:01;;;;;;;17.10;10.30;;;;;;;;;;5071486;28;20201;-78
2023/11/25 07:29:30;;;;;;;14.60;10.00;;;;;;;;;;5071640;28;20352;-79
2023/11/25 07:32:00;;;;;;;14.60;9.80;;;;;;;;;;5071387;28;20203;-79
2023/11/25 07:34:28;;;;;;;14.90;8.40;;;;;;;;;;5071737;28;20460;-78
2023/11/25 07:36:55;;;;;;;12.73;8.40;;;;;;;;;;5070672;28;20687;-79
2023/11/25 07:39:23;;;;;;;15.37;7.93;;;;;;;;;;5071251;28;20279;-79
2023/11/25 07:41:53;;;;;;;14.83;8.27;;;;;;;;;;5071124;28;20201;-79
2023/11/25 07:44:21;;;;;;;15.17;9.43;;;;;;;;;;5071027;28;20658;-77
2023/11/25 07:46:49;;;;;;;16.30;10.97;;;;;;;;;;5071602;28;20201;-77
2023/11/25 07:49:18;;;;;;;16.63;10.10;;;;;;;;;;5071383;28;20225;-77
2023/11/25 07:51:45;;;;;;;18.57;11.13;;;;;;;;;;5070381;28;20288;-76
2023/11/25 07:54:12;;;;;;;15.23;9.93;;;;;;;;;;5071620;28;20193;-77
2023/11/25 07:56:39;;;;;;;15.63;9.90;;;;;;;;;;5071260;28;20202;-77
2023/11/25 07:59:07;;;;;;;14.83;9.23;;;;;;;;;;5070847;28;20222;-78
2023/11/25 08:01:34;;;;;;;12.90;7.60;;;;;;;;;;5071195;28;20293;-78
2023/11/25 08:04:01;;;;;;;13.47;8.27;;;;;;;;;;5071152;28;20630;-77
2023/11/25 08:06:30;;;;;;;12.87;8.40;;;;;;;;;;5069840;28;20681;-77
2023/11/25 08:08:57;;;;;;;12.53;7.63;;;;;;;;;;5070631;28;20322;-76
2023/11/25 08:11:24;;;;;;;13.30;7.43;;;;;;;;;;5071230;28;20283;-78
2023/11/25 08:13:52;;;;;;;13.50;9.33;;;;;;;;;;5070831;28;20298;-77
2023/11/25 08:16:19;;;;;;;12.87;9.30;;;;;;;;;;5070824;28;20733;-77
2023/11/25 08:18:46;;;;;;;10.47;8.53;;;;;;;;;;5071069;28;20294;-76
2023/11/25 08:21:14;;;;;;;10.50;7.47;;;;;;;;;;5070139;28;20289;-77
2023/11/25 08:23:42;;;;;;;12.13;7.37;;;;;;;;;;5070262;28;20201;-76
2023/11/25 08:26:18;;;;;;;9.23;6.53;;;;;;;;;;5071097;28;20260;-77
2023/11/25 08:28:46;;;;;;;10.13;6.63;;;;;;;;;;5069982;28;20223;-77
2023/11/25 08:31:13;;;;;;;10.70;5.70;;;;;;;;;;5070470;28;20206;-77
2023/11/25 08:33:41;;;;;;;7.73;5.27;;;;;;;;;;5070583;28;20230;-78
2023/11/25 08:36:10;;;;;;;8.50;5.40;;;;;;;;;;5071009;28;20199;-78
2023/11/25 08:38:37;;;;;;;8.90;5.50;;;;;;;;;;5070642;28;20219;-78
2023/11/25 08:41:06;;;;;;;8.73;5.07;;;;;;;;;;5070436;28;20241;-78
2023/11/25 08:43:34;;;;;;;7.97;6.10;;;;;;;;;;5070599;28;20204;-78
2023/11/25 08:46:02;;;;;;;11.97;8.83;;;;;;;;;;5070774;28;20242;-77
2023/11/25 08:48:29;;;;;;;15.77;9.93;;;;;;;;;;5070152;28;20813;-77
2023/11/25 08:50:57;;;;;;;15.83;10.17;;;;;;;;;;5071388;28;20610;-77
2023/11/25 08:53:24;;;;;;;11.33;7.83;;;;;;;;;;5074200;28;20283;-78
2023/11/25 08:55:52;;;;;;;11.87;8.43;;;;;;;;;;5074327;28;20286;-77
2023/11/25 08:58:22;;;;;;;11.00;8.63;;;;;;;;;;5074235;28;20736;-77
2023/11/25 09:00:51;;;;;;;13.33;10.70;;;;;;;;;;5073911;28;20326;-76
2023/11/25 09:03:19;;;;;;;14.40;11.07;;;;;;;;;;5073938;28;20195;-77
2023/11/25 09:05:47;;;;;;;11.83;10.07;;;;;;;;;;5074363;28;20200;-77
2023/11/25 09:08:14;;;;;;;14.20;10.43;;;;;;;;;;5073767;28;20227;-76
2023/11/25 09:10:42;;;;;;;10.57;8.60;;;;;;;;;;5073977;28;20239;-77
2023/11/25 09:13:09;;;;;;;11.00;7.83;;;;;;;;;;5065464;28;20257;-82
2023/11/25 09:15:38;;;;;;;11.77;7.60;;;;;;;;;;5073928;28;20659;-82
2023/11/25 09:18:06;;;;;;;11.70;8.00;;;;;;;;;;5073301;28;20206;-83
2023/11/25 09:20:34;;;;;;;10.60;6.80;;;;;;;;;;5074028;28;20671;-82
2023/11/25 09:23:02;;;;;;;11.80;6.47;;;;;;;;;;5073526;28;20195;-82
2023/11/25 09:25:31;;;;;;;8.97;5.63;;;;;;;;;;5074034;28;20202;-83
2023/11/25 09:27:58;;;;;;;11.20;5.83;;;;;;;;;;5073703;28;20758;-83
2023/11/25 09:30:26;;;;;;;9.37;5.20;;;;;;;;;;5073520;28;20195;-82
2023/11/25 09:32:54;;;;;;;10.30;6.67;;;;;;;;;;5073952;28;20245;-82
2023/11/25 09:35:22;;;;;;;9.40;6.07;;;;;;;;;;5069488;28;20199;-81
2023/11/25 09:37:50;;;;;;;16.87;7.17;;;;;;;;;;5064133;28;20282;-82
2023/11/25 09:40:19;;;;;;;10.30;4.53;;;;;;;;;;5061452;28;20192;-83
2023/11/25 09:42:47;;;;;;;9.00;4.77;;;;;;;;;;5071916;28;20218;-82
2023/11/25 09:45:15;;;;;;;9.73;3.93;;;;;;;;;;5072399;28;20298;-83
2023/11/25 09:47:44;;;;;;;5.80;3.83;;;;;;;;;;5062491;28;20201;-83
2023/11/25 09:50:13;;;;;;;8.13;4.03;;;;;;;;;;5062265;28;20212;-83
2023/11/25 09:52:44;;;;;;;7.77;4.67;;;;;;;;;;5060592;28;20672;-83
2023/11/25 09:55:11;;;;;;;9.47;5.10;;;;;;;;;;5060870;28;20203;-84
2023/11/25 09:57:39;;;;;;;14.07;5.10;;;;;;;;;;5060158;28;20192;-83
2023/11/25 10:00:11;;;;;;;8.00;5.00;;;;;;;;;;5080654;28;20308;-83
2023/11/25 10:02:39;;;;;;;7.30;4.60;;;;;;;;;;5073250;28;20205;-80
2023/11/25 10:05:07;;;;;;;10.87;4.83;;;;;;;;;;5070433;28;20291;-81
2023/11/25 10:07:36;;;;;;;9.33;4.20;;;;;;;;;;5052937;28;20393;-83
2023/11/25 10:10:03;;;;;;;8.60;4.20;;;;;;;;;;5062919;28;20223;-83
2023/11/25 10:12:31;;;;;;;6.70;4.13;;;;;;;;;;5067729;28;20238;-82
2023/11/25 10:15:00;;;;;;;6.50;3.80;;;;;;;;;;5064931;28;20195;-83
2023/11/25 10:17:27;;;;;;;7.93;4.03;;;;;;;;;;5072972;28;20656;-83
2023/11/25 10:20:06;;;;;;;7.93;3.90;;;;;;;;;;5072189;28;20222;-83
2023/11/25 10:22:44;;;;;;;10.47;3.87;;;;;;;;;;5071609;28;20286;-82
2023/11/25 10:25:13;;;;;;;7.10;3.47;;;;;;;;;;5071770;28;20305;-83
2023/11/25 10:27:40;;;;;;;6.80;3.60;;;;;;;;;;5072808;28;20230;-82
2023/11/25 10:30:08;;;;;;;5.37;3.30;;;;;;;;;;5071322;28;20270;-83
2023/11/25 10:32:36;;;;;;;10.47;3.60;;;;;;;;;;5072142;28;20195;-83
2023/11/25 10:35:04;;;;;;;6.17;2.50;;;;;;;;;;5072125;28;20230;-82
2023/11/25 10:37:32;;;;;;;5.97;2.77;;;;;;;;;;5072107;28;20222;-82
2023/11/25 10:40:00;;;;;;;10.27;2.83;;;;;;;;;;5072346;28;20195;-82
2023/11/25 10:42:29;;;;;;;9.00;3.30;;;;;;;;;;5071525;28;20196;-83
2023/11/25 10:44:56;;;;;;;7.10;2.93;;;;;;;;;;5071324;28;20256;-82
2023/11/25 10:47:33;;;;;;;7.43;2.47;;;;;;;;;;5072476;28;20237;-82
2023/11/25 10:50:03;;;;;;;7.97;2.90;;;;;;;;;;5071963;28;20218;-83
2023/11/25 10:52:36;;;;;;;6.20;2.50;;;;;;;;;;5071987;28;20223;-82
2023/11/25 10:55:04;;;;;;;6.90;2.97;;;;;;;;;;5072172;28;20200;-83
2023/11/25 10:57:33;;;;;;;6.07;2.33;;;;;;;;;;5071897;28;20206;-83
2023/11/25 11:00:03;;;;;;;6.13;2.30;;;;;;;;;;5051231;28;20239;-83
2023/11/25 11:02:34;;;;;;;5.10;2.13;;;;;;;;;;5058177;28;20211;-83
2023/11/25 11:05:08;;;;;;;5.90;2.20;;;;;;;;;;5071884;28;20655;-82
2023/11/25 11:07:38;;;;;;;6.33;2.00;;;;;;;;;;5070825;28;20194;-82
2023/11/25 11:10:07;;;;;;;4.00;1.57;;;;;;;;;;5071110;28;20713;-83
2023/11/25 11:12:39;;;;;;;5.27;2.10;;;;;;;;;;5071749;28;20218;-83
2023/11/25 11:15:07;;;;;;;4.87;1.77;;;;;;;;;;5071031;28;20238;-83
2023/11/25 11:17:39;;;;;;;5.83;2.10;;;;;;;;;;5065737;28;20211;-83
2023/11/25 11:20:10;;;;;;;6.03;2.17;;;;;;;;;;5071358;28;20310;-83
2023/11/25 11:22:37;;;;;;;5.60;2.10;;;;;;;;;;5071787;28;20195;-82
2023/11/25 11:25:09;;;;;;;7.43;2.57;;;;;;;;;;5071707;28;20686;-82
2023/11/25 11:27:41;;;;;;;5.97;1.90;;;;;;;;;;5071042;28;20199;-83
2023/11/25 11:30:15;;;;;;;5.43;2.20;;;;;;;;;;5071560;28;20284;-82
2023/11/25 11:32:43;;;;;;;6.23;1.87;;;;;;;;;;5065524;28;20235;-83
2023/11/25 11:35:10;;;;;;;6.37;2.00;;;;;;;;;;5067296;28;20264;-83
2023/11/25 11:37:39;;;;;;;9.13;2.30;;;;;;;;;;5063180;28;20206;-83
2023/11/25 11:40:07;;;;;;;3.90;1.87;;;;;;;;;;5063243;28;20202;-82
2023/11/25 11:42:36;;;;;;;4.87;1.87;;;;;;;;;;5064143;28;20286;-83
2023/11/25 11:45:25;;;;;;;4.17;1.70;;;;;;;;;;5064634;28;20202;-83
2023/11/25 11:47:52;;;;;;;6.60;2.03;;;;;;;;;;5064969;28;20203;-83
2023/11/25 11:50:20;;;;;;;8.60;2.00;;;;;;;;;;5068305;28;20774;-83
2023/11/25 11:53:12;;;;;;;4.03;1.57;;;;;;;;;;5067100;28;20277;-83
2023/11/25 11:55:39;;;;;;;6.37;1.77;;;;;;;;;;5068758;28;20222;-83
2023/11/25 11:58:08;;;;;;;7.73;2.03;;;;;;;;;;5069396;28;20690;-83
2023/11/25 12:00:43;;;;;;;5.27;1.70;;;;;;;;;;5060602;28;20281;-84
2023/11/25 12:03:10;;;;;;;5.20;1.40;;;;;;;;;;5051128;28;20205;-83
2023/11/25 12:05:38;;;;;;;6.27;1.70;;;;;;;;;;5060540;28;20198;-84
2023/11/25 12:08:06;;;;;;;6.43;1.53;;;;;;;;;;5071399;28;20214;-83
2023/11/25 12:10:33;;;;;;;6.27;1.60;;;;;;;;;;5070940;28;20230;-83
2023/11/25 12:13:01;;;;;;;5.70;1.30;;;;;;;;;;5070928;28;20203;-83
2023/11/25 12:15:30;;;;;;;7.50;1.60;;;;;;;;;;5071190;28;20268;-83
2023/11/25 12:18:00;;;;;;;5.67;1.70;;;;;;;;;;5067487;28;20622;-83
2023/11/25 12:20:28;;;;;;;5.83;1.93;;;;;;;;;;5055833;28;20747;-83
2023/11/25 12:22:56;;;;;;;9.73;1.87;;;;;;;;;;5069746;28;20199;-83
2023/11/25 12:25:23;;;;;;;3.63;1.70;;;;;;;;;;5070934;28;20256;-83
2023/11/25 12:27:53;;;;;;;5.63;1.70;;;;;;;;;;5074846;28;20256;-83
2023/11/25 12:30:20;;;;;;;5.30;1.50;;;;;;;;;;5075004;28;20318;-83
2023/11/25 12:32:48;;;;;;;4.43;1.47;;;;;;;;;;5075075;28;20192;-84
2023/11/25 12:35:16;;;;;;;8.67;2.37;;;;;;;;;;5074573;28;20289;-83
2023/11/25 12:37:44;;;;;;;8.30;2.77;;;;;;;;;;5074940;28;20610;-83
2023/11/25 12:40:18;;;;;;;5.93;2.77;;;;;;;;;;5074774;28;20627;-83
2023/11/25 12:42:47;;;;;;;7.80;2.90;;;;;;;;;;5075040;28;20659;-84
2023/11/25 12:45:28;;;;;;;4.20;1.80;;;;;;;;;;5074677;28;20382;-84
2023/11/25 12:47:56;;;;;;;4.77;1.53;;;;;;;;;;5074870;28;20682;-84
2023/11/25 12:50:24;;;;;;;5.38;2.33;;;;;;;;;;5074776;28;20321;-84
2023/11/25 12:53:05;;;;;;;7.07;3.40;;;;;;;;;;5074798;28;20286;-84
2023/11/25 12:55:37;;;;;;;7.07;2.07;;;;;;;;;;5074515;28;20202;-84
2023/11/25 12:58:08;;;;;;;4.30;1.90;;;;;;;;;;5074825;28;20667;-84
2023/11/25 13:00:36;;;;;;;5.10;2.70;;;;;;;;;;5074153;28;20235;-84
2023/11/25 13:03:03;;;;;;;5.87;3.10;;;;;;;;;;5074667;28;20199;-84
2023/11/25 13:05:33;;;;;;;7.40;2.60;;;;;;;;;;5074875;28;20225;-84
2023/11/25 13:08:00;;;;;;;5.57;2.17;;;;;;;;;;5074437;28;20242;-84
2023/11/25 13:10:28;;;;;;;13.30;8.20;;;;;;;;;;5073517;28;20684;-84
2023/11/25 13:12:55;;;;;;;14.03;8.10;;;;;;;;;;5074380;28;20225;-83
2023/11/25 13:15:23;;;;;;;9.87;4.77;;;;;;;;;;5074301;28;20274;-84
2023/11/25 13:17:50;;;;;;;6.17;2.20;;;;;;;;;;5074314;28;20206;-84
2023/11/25 13:20:18;;;;;;;4.17;1.70;;;;;;;;;;5074468;28;20191;-84
2023/11/25 13:22:46;;;;;;;3.53;1.60;;;;;;;;;;5074299;28;20623;-84
2023/11/25 13:25:14;;;;;;;4.67;2.07;;;;;;;;;;5073275;28;20195;-84
2023/11/25 13:27:41;;;;;;;4.60;2.00;;;;;;;;;;5074122;28;20627;-84
2023/11/25 13:30:10;;;;;;;7.83;2.03;;;;;;;;;;5073822;28;20222;-84
2023/11/25 13:32:38;;;;;;;6.10;2.00;;;;;;;;;;5074373;28;20690;-84
2023/11/25 13:35:06;;;;;;;8.00;2.27;;;;;;;;;;5074030;28;20643;-83
2023/11/25 13:37:35;;;;;;;6.80;2.20;;;;;;;;;;5073415;28;20195;-84
2023/11/25 13:40:08;;;;;;;7.57;1.97;;;;;;;;;;5073541;28;20199;-84
2023/11/25 13:42:36;;;;;;;5.47;1.80;;;;;;;;;;5074086;28;20203;-84
2023/11/25 13:45:04;;;;;;;7.53;3.37;;;;;;;;;;5073558;28;20290;-83
2023/11/25 13:47:31;;;;;;;7.77;4.57;;;;;;;;;;5074019;28;20281;-84
2023/11/25 13:49:59;;;;;;;9.57;5.63;;;;;;;;;;5073343;28;20639;-84
2023/11/25 13:52:26;;;;;;;4.83;2.23;;;;;;;;;;5073366;28;20746;-83
2023/11/25 13:54:53;;;;;;;10.50;4.83;;;;;;;;;;5073597;28;20249;-84
2023/11/25 13:57:22;;;;;;;7.87;2.20;;;;;;;;;;5073422;28;20283;-84
2023/11/25 13:59:49;;;;;;;5.90;1.87;;;;;;;;;;5073048;28;20326;-84
2023/11/25 14:02:17;;;;;;;4.67;1.90;;;;;;;;;;5072955;28;20666;-83
2023/11/25 14:04:44;;;;;;;5.93;1.67;;;;;;;;;;5073318;28;20245;-83
2023/11/25 14:07:11;;;;;;;5.60;2.00;;;;;;;;;;5072963;28;20199;-84
2023/11/25 14:09:39;;;;;;;6.53;3.00;;;;;;;;;;5073124;28;20690;-83
2023/11/25 14:12:07;;;;;;;7.57;4.70;;;;;;;;;;5073131;28;20238;-83
2023/11/25 14:14:36;;;;;;;8.23;4.33;;;;;;;;;;5072895;28;20195;-83
2023/11/25 14:17:05;;;;;;;7.40;3.70;;;;;;;;;;5073422;28;20195;-83
2023/11/25 14:19:32;;;;;;;4.70;1.77;;;;;;;;;;5073219;28;20215;-83
2023/11/25 14:21:59;;;;;;;4.80;2.30;;;;;;;;;;5072888;28;20282;-84
2023/11/25 14:24:26;;;;;;;7.00;4.20;;;;;;;;;;5072651;28;20199;-83
2023/11/25 14:26:54;;;;;;;4.80;1.97;;;;;;;;;;5072951;28;20728;-83
2023/11/25 14:29:22;;;;;;;7.03;4.20;;;;;;;;;;5073092;28;20290;-84
2023/11/25 14:31:51;;;;;;;5.77;2.33;;;;;;;;;;5072568;28;20280;-84
2023/11/25 14:34:19;;;;;;;8.30;3.03;;;;;;;;;;5072541;28;20274;-84
2023/11/25 14:36:46;;;;;;;9.53;6.03;;;;;;;;;;5072849;28;20199;-84
2023/11/25 14:39:18;;;;;;;8.73;5.50;;;;;;;;;;5072575;28;20227;-82
2023/11/25 14:41:47;;;;;;;7.57;2.10;;;;;;;;;;5072378;28;20258;-84